createdAt,value
2018-07-04T00:02:37.312Z,22.60
2018-07-04T00:07:47.649Z,22.60
2018-07-04T00:12:57.852Z,22.60
2018-07-04T00:18:08.099Z,22.60
2018-07-04T00:23:18.419Z,22.70
2018-07-04T00:28:28.747Z,22.70
2018-07-04T00:33:39.068Z,22.60
2018-07-04T00:38:49.380Z,22.50
2018-07-04T00:49:04.220Z,22.30
2018-07-04T00:54:14.381Z,22.20
2018-07-04T00:59:24.706Z,22.20
2018-07-04T01:04:34.900Z,22.10
2018-07-04T01:14:51.275Z,22.10
2018-07-04T01:20:01.808Z,22.00
2018-07-04T01:25:12.145Z,22.00
2018-07-04T01:30:22.552Z,22.00
2018-07-04T01:35:32.950Z,21.90
2018-07-04T01:40:43.124Z,21.90
2018-07-04T01:45:53.499Z,21.90
2018-07-04T01:51:03.952Z,21.80
2018-07-04T01:56:14.385Z,21.80
2018-07-04T02:01:24.607Z,21.80
2018-07-04T02:06:35.024Z,21.80
2018-07-04T02:16:49.783Z,21.70
2018-07-04T02:22:00.081Z,21.70
2018-07-04T02:27:11.604Z,21.50
2018-07-04T02:32:21.842Z,21.60
2018-07-04T02:37:32.277Z,21.70
2018-07-04T02:42:42.702Z,21.70
2018-07-04T02:47:53.074Z,21.70
2018-07-04T02:53:03.456Z,21.50
2018-07-04T02:58:13.714Z,21.50
2018-07-04T03:03:24.409Z,21.40
2018-07-04T03:08:34.791Z,21.40
2018-07-04T03:13:45.247Z,21.10
2018-07-04T03:18:55.512Z,21.00
2018-07-04T03:24:05.962Z,20.80
2018-07-04T03:29:16.255Z,20.70
2018-07-04T03:34:26.696Z,20.60
2018-07-04T03:39:36.839Z,20.50
2018-07-04T03:44:47.117Z,20.50
2018-07-04T03:49:57.284Z,20.40
2018-07-04T03:55:07.652Z,20.40
2018-07-04T04:00:17.946Z,20.40
2018-07-04T04:05:28.170Z,20.60
2018-07-04T04:10:38.583Z,20.60
2018-07-04T04:15:48.742Z,20.70
2018-07-04T04:20:59.044Z,20.90
2018-07-04T04:26:09.506Z,21.00
2018-07-04T04:31:19.762Z,20.90
2018-07-04T04:36:30.148Z,20.90
2018-07-04T04:41:40.350Z,20.90
2018-07-04T04:46:50.603Z,20.90
2018-07-04T04:52:00.889Z,21.00
2018-07-04T04:57:11.368Z,21.40
2018-07-04T05:02:21.676Z,22.60
2018-07-04T05:07:32.025Z,23.10
2018-07-04T05:17:46.829Z,23.40
2018-07-04T05:22:57.190Z,24.20
2018-07-04T05:28:07.610Z,24.80
2018-07-04T05:33:17.992Z,25.10
2018-07-04T05:38:28.235Z,25.40
2018-07-04T05:43:39.645Z,26.10
2018-07-04T05:48:50.017Z,27.30
2018-07-04T05:59:05.187Z,26.90
2018-07-04T06:04:15.411Z,27.00
2018-07-04T06:14:30.441Z,26.90
2018-07-04T06:19:41.333Z,27.50
2018-07-04T06:24:51.656Z,28.90
2018-07-04T06:30:02.072Z,30.20
2018-07-04T06:39:59.411Z,29.80
2018-07-04T06:44:51.699Z,29.40
2018-07-04T06:49:43.946Z,31.30
2018-07-04T06:54:36.219Z,31.80
2018-07-04T06:59:28.548Z,30.90
2018-07-04T07:04:38.938Z,29.80
2018-07-04T07:09:49.320Z,29.10
2018-07-04T07:14:59.587Z,29.00
2018-07-04T07:20:10.062Z,29.70
2018-07-04T07:25:20.385Z,29.60
2018-07-04T07:30:30.796Z,30.50
2018-07-04T07:35:41.066Z,32.10
2018-07-04T07:40:51.461Z,36.00
2018-07-04T07:46:01.796Z,34.60
2018-07-04T07:51:12.134Z,33.70
2018-07-04T07:56:22.369Z,34.40
2018-07-04T08:01:32.667Z,34.60
2018-07-04T08:06:43.114Z,33.70
2018-07-04T08:11:53.494Z,33.30
2018-07-04T08:17:03.765Z,32.20
2018-07-04T08:22:13.922Z,31.00
2018-07-04T08:27:24.445Z,30.50
2018-07-04T08:32:34.610Z,31.80
2018-07-04T08:37:44.875Z,32.80
2018-07-04T08:42:55.098Z,33.10
2018-07-04T08:48:05.869Z,33.10
2018-07-04T08:53:16.436Z,32.60
2018-07-04T08:58:26.749Z,31.50
2018-07-04T09:03:37.187Z,30.80
2018-07-04T09:08:47.409Z,30.50
2018-07-04T09:13:57.810Z,30.60
2018-07-04T09:19:08.174Z,30.10
2018-07-04T09:29:23.077Z,28.40
2018-07-04T09:34:33.502Z,27.80
2018-07-04T09:39:43.636Z,26.70
2018-07-04T09:44:53.891Z,26.70
2018-07-04T09:50:04.230Z,26.50
2018-07-04T09:55:14.464Z,26.70
2018-07-04T10:00:28.815Z,27.10
2018-07-04T10:05:39.084Z,27.60
2018-07-04T10:10:49.458Z,28.20
2018-07-04T10:15:59.770Z,28.80
2018-07-04T10:21:10.202Z,29.10
2018-07-04T10:26:20.484Z,29.20
2018-07-04T10:31:30.690Z,28.70
2018-07-04T10:36:41.092Z,28.30
2018-07-04T10:52:00.292Z,29.00
2018-07-04T10:57:10.791Z,29.60
2018-07-04T11:02:21.092Z,30.00
2018-07-04T11:12:36.299Z,30.90
2018-07-04T11:17:46.792Z,30.10
2018-07-04T11:28:01.788Z,29.00
2018-07-04T11:33:12.203Z,29.10
2018-07-04T11:38:22.561Z,28.90
2018-07-04T11:43:33.470Z,29.70
2018-07-04T11:48:25.083Z,30.10
2018-07-04T11:53:16.761Z,30.40
2018-07-04T11:58:08.329Z,30.60
2018-07-04T12:02:59.898Z,30.40
2018-07-04T12:12:43.529Z,30.30
2018-07-04T12:17:35.125Z,30.00
2018-07-04T12:22:26.731Z,29.90
2018-07-04T12:27:18.316Z,29.80
2018-07-04T12:32:09.911Z,29.50
2018-07-04T12:37:01.477Z,29.50
2018-07-04T12:41:53.056Z,29.30
2018-07-04T12:46:44.662Z,29.20
2018-07-04T12:51:36.233Z,29.20
2018-07-04T12:56:46.650Z,28.90
2018-07-04T13:07:01.751Z,28.50
2018-07-04T13:17:16.620Z,28.10
2018-07-04T13:22:26.843Z,27.20
2018-07-04T13:32:41.789Z,25.50
2018-07-04T13:37:52.071Z,25.30
2018-07-04T13:43:02.282Z,25.20
2018-07-04T13:48:12.678Z,25.30
2018-07-04T13:53:23.040Z,25.30
2018-07-04T13:58:33.975Z,25.40
2018-07-04T14:03:44.622Z,25.60
2018-07-04T14:08:55.056Z,25.50
2018-07-04T14:14:05.352Z,25.90
2018-07-04T14:19:15.770Z,26.20
2018-07-04T14:24:26.136Z,26.60
2018-07-04T14:34:41.159Z,27.50
2018-07-04T14:44:56.097Z,27.80
2018-07-04T14:50:06.574Z,27.80
2018-07-04T14:55:16.995Z,28.10
2018-07-04T15:00:27.355Z,28.20
2018-07-04T15:05:37.689Z,28.40
2018-07-04T15:10:47.928Z,28.50
2018-07-04T15:15:58.233Z,28.40
2018-07-04T15:21:08.478Z,28.20
2018-07-04T15:26:18.780Z,28.20
2018-07-04T15:31:29.248Z,28.20
2018-07-04T15:41:45.171Z,28.30
2018-07-04T15:46:55.747Z,28.30
2018-07-04T15:52:06.004Z,28.20
2018-07-04T15:57:16.860Z,28.10
2018-07-04T16:02:27.405Z,28.00
2018-07-04T16:12:42.358Z,27.80
2018-07-04T16:17:52.658Z,27.70
2018-07-04T16:23:02.891Z,27.80
2018-07-04T16:28:13.212Z,27.90
2018-07-04T16:33:23.584Z,28.00
2018-07-04T16:38:33.979Z,27.90
2018-07-04T16:43:44.172Z,27.70
2018-07-04T16:53:59.317Z,27.60
2018-07-04T16:59:09.528Z,27.70
2018-07-04T17:04:19.942Z,27.70
2018-07-04T17:09:30.237Z,27.70
2018-07-04T17:14:40.598Z,27.50
2018-07-04T17:19:51.093Z,27.50
2018-07-04T17:25:01.349Z,27.50
2018-07-04T17:30:11.840Z,27.30
2018-07-04T17:35:22.242Z,27.50
2018-07-04T17:40:32.580Z,27.90
2018-07-04T17:45:42.977Z,27.70
2018-07-04T17:50:53.239Z,27.30
2018-07-04T17:56:03.633Z,27.70
2018-07-04T18:01:14.062Z,27.60
2018-07-04T18:06:24.416Z,27.50
2018-07-04T18:11:34.706Z,27.20
2018-07-04T18:16:45.018Z,26.70
2018-07-04T18:21:55.412Z,26.60
2018-07-04T18:27:05.612Z,26.20
2018-07-04T18:32:15.891Z,25.90
2018-07-04T18:37:26.736Z,25.60
2018-07-04T18:42:37.024Z,25.50
2018-07-04T18:47:47.295Z,25.30
2018-07-04T18:52:57.694Z,25.00
2018-07-04T18:58:07.990Z,25.10
2018-07-04T19:03:18.489Z,25.20
2018-07-04T19:13:34.096Z,24.70
2018-07-04T19:18:45.541Z,24.50
2018-07-04T19:23:56.149Z,24.40
2018-07-04T19:29:06.452Z,24.40
2018-07-04T19:34:16.693Z,24.30
2018-07-04T19:39:27.054Z,24.10
2018-07-04T19:44:37.232Z,24.10
2018-07-04T19:49:47.503Z,23.90
2018-07-04T19:54:58.478Z,23.80
2018-07-04T20:00:08.833Z,23.70
2018-07-04T20:05:19.234Z,23.60
2018-07-04T20:10:29.489Z,23.50
2018-07-04T20:15:39.693Z,23.40
2018-07-04T20:20:49.931Z,23.20
2018-07-04T20:26:00.089Z,23.10
2018-07-04T20:36:15.049Z,22.90
2018-07-04T20:41:25.484Z,22.80
2018-07-04T20:51:40.264Z,22.50
2018-07-04T20:56:50.835Z,22.50
2018-07-04T21:02:01.156Z,22.40
2018-07-04T21:12:15.862Z,22.30
2018-07-04T21:22:30.526Z,22.00
2018-07-04T21:27:40.929Z,22.00
2018-07-04T21:32:51.207Z,22.00
2018-07-04T21:38:01.468Z,22.00
2018-07-04T21:43:11.693Z,22.00
2018-07-04T21:48:22.014Z,22.00
2018-07-04T21:53:32.346Z,22.00
2018-07-04T21:58:42.630Z,22.10
2018-07-04T22:03:52.974Z,22.00
2018-07-04T22:09:03.929Z,21.90
2018-07-04T22:14:14.179Z,21.90
2018-07-04T22:19:24.483Z,21.80
2018-07-04T22:24:34.783Z,21.70
2018-07-04T22:29:45.340Z,21.70
2018-07-04T22:34:55.799Z,21.60
2018-07-04T22:40:06.284Z,21.60
2018-07-04T22:45:16.778Z,21.50
2018-07-04T22:50:27.450Z,21.30
2018-07-04T22:55:37.928Z,21.20
2018-07-04T23:00:48.444Z,21.20
2018-07-04T23:16:08.064Z,20.90
2018-07-04T23:21:18.469Z,19.70
2018-07-04T23:31:33.277Z,20.70
2018-07-04T23:41:48.192Z,20.60
2018-07-04T23:52:02.961Z,20.50
2018-07-04T23:57:13.315Z,20.50
